General Roca, Argentina
Current Conditions -  °F | °C
As of 8:00 PM on Tuesday 25 Nov 2014 (Local Time) from SAZN Reporting Station
Clear Clear  
Wind Chill: 79°   Ceiling: Unl
Heat Index: 79°   Visibility: 6mi
Dew Point: 27°   Wind: 5mph
Humidity: 15%   Direction: 230°SW
Pressure: 29.8"   Gusts: NA
Location:  39.02°S, 67.61°W
Report Text: SAZN 252300Z 23004KT CAVOK 26/M03 Q1009
Loading
Personal Weather Stations






























Interactive Weather Map New forecast layout! Learn more

10-Day Weather Forecast

Advertisements
Track Severe Weather on mobile